Terminal Aerodrome Forecast
Issued by NWS

Home | Current Version | Previous Version | Text Only | Print | Product List | Glossary On
Versions: 1 2 3 4 5 6 7 8 9 10 11 12 13 14 15 16 17 18 19 20 21 22 23 24 25
696
FTUS43 KDTX 252323
TAFDET
TAF
KDET 252323Z 2600/2624 30010KT P6SM SCT150
     FM261400 33005KT P6SM SCT250
     FM262000 27005KT P6SM SCT060=

USA.gov is the U.S. government's official web portal to all federal, state and local government web resources and services.